KRDG

Reading Regional / Carl A Spaatz Field Airport

Reading, Pennsylvania, USA
KRDG 181938Z 1820/1918 VRB05KT P6SM OVC025 TEMPO 1820/1824 4SM BR OVC015 FM190000 31005KT P6SM BKN050 FM190300 VRB03KT P6SM BKN250 FM191500 06005KT P6SM OVC200
Issued Valid From Valid To
Jan-18 @ 19:38 UTC
(26 minutes ago)
Jan-18 @ 20:00 UTC
(4 minutes ago)
Jan-19 @ 18:00 UTC
(in 22 hours)
Jan-18 @ 20:00 to Jan-19 @ 00:00
KRDG 181938Z 1820/1918 VRB05KT P6SM OVC025
Wind Visibility Clouds
Variable at 5 knots Greater than 6 miles
  • Overcast at 2,500' AGL
Temporary Jan-18 @ 20:00 to Jan-19 @ 00:00
TEMPO 1820/1824 4SM BR OVC015
Visibility Clouds Conditions
4 miles
  • Overcast at 1,500' AGL
  • Mist
From Jan-19 @ 00:00 to Jan-19 @ 03:00
FM190000 31005KT P6SM BKN050
Wind Visibility Clouds
310° at 5 knots Greater than 6 miles
  • Broken at 5,000' AGL
From Jan-19 @ 03:00 to Jan-19 @ 15:00
FM190300 VRB03KT P6SM BKN250
Wind Visibility Clouds
Variable at 3 knots Greater than 6 miles
  • Broken at 25,000' AGL
From Jan-19 @ 15:00 to Jan-19 @ 18:00
FM191500 06005KT P6SM OVC200
Wind Visibility Clouds
60° at 5 knots Greater than 6 miles
  • Overcast at 20,000' AGL
KRDG 181938Z 1820/1918 VRB05KT P6SM OVC025 TEMPO 1820/1824 4SM BR OVC015 FM190000 31005KT P6SM BKN050 FM190300 VRB03KT P6SM BKN250 FM191500 06005KT P6SM OVC200
Issued Jan-18 @ 19:38 UTC
(26 minutes ago)
Valid From Jan-18 @ 20:00 UTC
(4 minutes ago)
Valid To Jan-19 @ 18:00 UTC
(in 22 hours)
Jan-18 @ 20:00 - Jan-19 @ 00:00
Wind Visibility
Variable at 5 knots Greater than 6 miles
Clouds
  • Overcast at 2,500' AGL
Temporary Jan-18 @ 20:00 - Jan-19 @ 00:00
Clouds
  • Overcast at 1,500' AGL
Conditions
  • Mist
From Jan-19 @ 00:00 - Jan-19 @ 03:00
Wind Visibility
310° at 5 knots Greater than 6 miles
Clouds
  • Broken at 5,000' AGL
From Jan-19 @ 03:00 - Jan-19 @ 15:00
Wind Visibility
Variable at 3 knots Greater than 6 miles
Clouds
  • Broken at 25,000' AGL
From Jan-19 @ 15:00 - Jan-19 @ 18:00
Wind Visibility
60° at 5 knots Greater than 6 miles
Clouds
  • Overcast at 20,000' AGL